createdAt,value
2018-02-23T00:00:06.178Z,60.20
2018-02-23T00:02:40.904Z,60.30
2018-02-23T00:05:14.954Z,60.20
2018-02-23T00:07:49.624Z,59.90
2018-02-23T00:10:23.646Z,59.90
2018-02-23T00:12:57.459Z,59.10
2018-02-23T00:15:31.744Z,59.80
2018-02-23T00:18:06.464Z,60.10
2018-02-23T00:20:40.274Z,60.60
2018-02-23T00:23:14.710Z,60.30
2018-02-23T00:25:48.618Z,60.70
2018-02-23T00:28:23.344Z,60.30
2018-02-23T00:30:58.004Z,60.90
2018-02-23T00:33:32.114Z,60.90
2018-02-23T00:36:06.704Z,59.80
2018-02-23T00:38:41.452Z,60.40
2018-02-23T00:41:16.048Z,60.20
2018-02-23T00:43:50.492Z,60.10
2018-02-23T00:46:25.094Z,60.00
2018-02-23T00:48:59.807Z,59.80
2018-02-23T00:51:33.966Z,59.80
2018-02-23T00:54:09.361Z,60.60
2018-02-23T00:56:44.524Z,60.00
2018-02-23T00:59:18.218Z,60.00
2018-02-23T01:01:53.105Z,59.70
2018-02-23T01:04:27.792Z,59.70
2018-02-23T01:07:02.796Z,59.40
2018-02-23T01:09:37.226Z,59.60
2018-02-23T01:12:11.419Z,59.50
2018-02-23T01:14:45.460Z,59.50
2018-02-23T01:17:19.160Z,59.50
2018-02-23T01:19:52.982Z,58.80
2018-02-23T01:22:26.865Z,59.30
2018-02-23T01:25:00.980Z,58.90
2018-02-23T01:27:36.007Z,59.10
2018-02-23T01:30:09.823Z,59.30
2018-02-23T01:32:44.233Z,59.50
2018-02-23T01:35:17.951Z,59.20
2018-02-23T01:37:52.883Z,59.70
2018-02-23T01:40:27.435Z,59.70
2018-02-23T01:43:02.722Z,59.90
2018-02-23T01:45:37.467Z,59.20
2018-02-23T01:48:11.552Z,59.20
2018-02-23T01:50:57.771Z,59.60
2018-02-23T01:53:31.883Z,59.60
2018-02-23T01:56:07.310Z,59.00
2018-02-23T01:58:42.957Z,60.10
2018-02-23T02:01:16.674Z,60.10
2018-02-23T02:03:52.416Z,60.00
2018-02-23T02:06:26.931Z,60.20
2018-02-23T02:09:00.454Z,60.20
2018-02-23T02:11:34.568Z,60.10
2018-02-23T02:14:08.347Z,60.50
2018-02-23T02:16:42.767Z,60.20
2018-02-23T02:19:17.391Z,60.90
2018-02-23T02:21:51.815Z,61.00
2018-02-23T02:24:26.533Z,61.50
2018-02-23T02:27:02.094Z,61.80
2018-02-23T02:29:36.836Z,61.80
2018-02-23T02:32:12.043Z,61.30
2018-02-23T02:34:46.384Z,61.10
2018-02-23T02:37:20.568Z,60.90
2018-02-23T02:39:55.001Z,61.70
2018-02-23T02:42:28.902Z,61.70
2018-02-23T02:45:03.053Z,61.50
2018-02-23T02:47:37.639Z,62.30
2018-02-23T02:50:12.492Z,62.20
2018-02-23T02:52:47.117Z,62.90
2018-02-23T02:55:21.535Z,62.80
2018-02-23T02:57:56.121Z,62.10
2018-02-23T03:00:30.969Z,62.60
2018-02-23T03:03:05.588Z,63.50
2018-02-23T03:05:40.633Z,62.10
2018-02-23T03:08:14.529Z,62.10
2018-02-23T03:10:49.158Z,62.90
2018-02-23T03:13:23.432Z,62.90
2018-02-23T03:15:57.071Z,62.80
2018-02-23T03:18:31.517Z,61.80
2018-02-23T03:21:06.549Z,62.40
2018-02-23T03:23:40.427Z,62.40
2018-02-23T03:26:14.471Z,62.80
2018-02-23T03:28:48.570Z,62.10
2018-02-23T03:31:23.091Z,62.90
2018-02-23T03:33:56.876Z,62.90
2018-02-23T03:36:31.520Z,62.80
2018-02-23T03:39:05.416Z,62.50
2018-02-23T03:41:41.608Z,61.20
2018-02-23T03:44:16.510Z,61.80
2018-02-23T03:46:51.420Z,61.80
2018-02-23T03:49:25.141Z,61.70
2018-02-23T03:52:00.156Z,62.90
2018-02-23T03:54:34.988Z,62.50
2018-02-23T03:57:09.004Z,62.50
2018-02-23T03:59:43.636Z,61.80
2018-02-23T04:02:17.853Z,62.80
2018-02-23T04:04:53.452Z,62.90
2018-02-23T04:07:28.217Z,62.20
2018-02-23T04:10:02.526Z,62.20
2018-02-23T04:12:36.646Z,62.80
2018-02-23T04:15:11.184Z,63.00
2018-02-23T04:17:45.808Z,63.00
2018-02-23T04:20:19.454Z,62.30
2018-02-23T04:22:53.291Z,62.70
2018-02-23T04:25:27.122Z,63.60
2018-02-23T04:28:02.021Z,62.70
2018-02-23T04:30:36.121Z,62.70
2018-02-23T04:33:11.688Z,63.10
2018-02-23T04:35:46.410Z,63.30
2018-02-23T04:38:22.784Z,63.10
2018-02-23T04:40:57.319Z,63.20
2018-02-23T04:43:33.383Z,62.70
2018-02-23T04:46:10.623Z,63.70
2018-02-23T04:48:44.480Z,63.60
2018-02-23T04:51:18.860Z,63.50
2018-02-23T04:53:53.086Z,65.00
2018-02-23T04:56:26.903Z,64.30
2018-02-23T04:59:00.686Z,64.30
2018-02-23T05:01:35.417Z,63.80
2018-02-23T05:04:09.912Z,63.80
2018-02-23T05:06:43.850Z,63.70
2018-02-23T05:09:18.759Z,63.70
2018-02-23T05:11:53.932Z,63.70
2018-02-23T05:14:28.436Z,63.70
2018-02-23T05:17:02.337Z,63.70
2018-02-23T05:19:37.347Z,63.40
2018-02-23T05:22:11.991Z,63.30
2018-02-23T05:24:46.654Z,63.30
2018-02-23T05:27:21.236Z,63.30
2018-02-23T05:29:56.875Z,64.30
2018-02-23T05:32:32.498Z,64.10
2018-02-23T05:35:06.677Z,64.20
2018-02-23T05:37:41.485Z,64.70
2018-02-23T05:40:16.516Z,64.70
2018-02-23T05:42:50.874Z,64.70
2018-02-23T05:45:24.635Z,64.90
2018-02-23T05:47:59.346Z,64.20
2018-02-23T05:50:34.189Z,64.10
2018-02-23T05:53:07.883Z,64.60
2018-02-23T05:55:42.099Z,64.60
2018-02-23T05:58:16.728Z,65.30
2018-02-23T06:00:53.328Z,65.10
2018-02-23T06:03:28.162Z,65.30
2018-02-23T06:06:02.244Z,65.20
2018-02-23T06:08:37.407Z,64.30
2018-02-23T06:11:12.207Z,63.90
2018-02-23T06:13:46.627Z,63.90
2018-02-23T06:16:28.027Z,65.30
2018-02-23T06:19:03.902Z,65.30
2018-02-23T06:21:37.664Z,66.10
2018-02-23T06:24:13.008Z,65.70
2018-02-23T06:26:47.012Z,66.30
2018-02-23T06:29:21.640Z,66.10
2018-02-23T06:31:56.565Z,65.90
2018-02-23T06:34:32.356Z,66.80
2018-02-23T06:37:06.945Z,65.90
2018-02-23T06:39:41.692Z,65.70
2018-02-23T06:42:15.979Z,65.70
2018-02-23T06:44:51.524Z,66.00
2018-02-23T06:47:26.373Z,65.60
2018-02-23T06:50:00.691Z,65.70
2018-02-23T06:52:34.991Z,67.60
2018-02-23T06:55:08.720Z,66.80
2018-02-23T06:57:43.828Z,65.90
2018-02-23T07:00:17.871Z,65.90
2018-02-23T07:02:52.904Z,65.20
2018-02-23T07:05:27.521Z,65.30
2018-02-23T07:08:01.711Z,65.30
2018-02-23T07:10:36.228Z,65.40
2018-02-23T07:13:11.035Z,65.10
2018-02-23T07:15:45.694Z,65.40
2018-02-23T07:18:20.649Z,64.80
2018-02-23T07:20:56.901Z,64.70
2018-02-23T07:23:32.509Z,64.60
2018-02-23T07:26:07.184Z,64.40
2018-02-23T07:28:41.751Z,64.40
2018-02-23T07:31:16.192Z,65.20
2018-02-23T07:33:51.260Z,63.60
2018-02-23T07:36:25.855Z,63.50
2018-02-23T07:39:00.010Z,63.60
2018-02-23T07:41:35.714Z,63.90
2018-02-23T07:44:11.990Z,64.70
2018-02-23T07:46:46.705Z,65.60
2018-02-23T07:49:21.660Z,65.60
2018-02-23T07:51:55.541Z,65.10
2018-02-23T07:54:29.643Z,64.50
2018-02-23T07:57:03.790Z,65.10
2018-02-23T07:59:37.666Z,66.30
2018-02-23T08:02:13.626Z,64.90
2018-02-23T08:04:49.196Z,65.70
2018-02-23T08:07:24.013Z,65.40
2018-02-23T08:09:57.912Z,65.20
2018-02-23T08:12:33.489Z,65.50
2018-02-23T08:15:07.162Z,64.20
2018-02-23T08:17:42.718Z,64.20
2018-02-23T08:20:16.506Z,63.80
2018-02-23T08:22:50.228Z,63.40
2018-02-23T08:25:24.394Z,63.50
2018-02-23T08:27:59.151Z,64.10
2018-02-23T08:30:33.159Z,64.10
2018-02-23T08:33:08.016Z,63.60
2018-02-23T08:35:42.650Z,63.20
2018-02-23T08:38:17.444Z,63.10
2018-02-23T08:40:52.072Z,63.00
2018-02-23T08:43:27.428Z,63.00
2018-02-23T08:46:02.743Z,63.90
2018-02-23T08:48:37.499Z,62.20
2018-02-23T08:51:13.028Z,63.10
2018-02-23T08:53:47.724Z,63.10
2018-02-23T08:56:23.094Z,62.10
2018-02-23T08:58:57.396Z,62.40
2018-02-23T09:01:32.963Z,63.00
2018-02-23T09:04:06.967Z,63.00
2018-02-23T09:06:42.630Z,62.70
2018-02-23T09:09:17.143Z,62.70
2018-02-23T09:11:51.734Z,62.80
2018-02-23T09:14:25.571Z,63.20
2018-02-23T09:17:00.477Z,61.80
2018-02-23T09:19:34.998Z,62.10
2018-02-23T09:22:10.749Z,61.70
2018-02-23T09:24:46.088Z,61.00
2018-02-23T09:27:21.149Z,61.10
2018-02-23T09:29:55.140Z,60.30
2018-02-23T09:32:38.913Z,59.90
2018-02-23T09:35:13.485Z,59.80
2018-02-23T09:37:48.228Z,59.70
2018-02-23T09:40:23.053Z,60.50
2018-02-23T09:42:56.846Z,60.60
2018-02-23T09:45:32.823Z,60.60
2018-02-23T09:48:06.612Z,60.60
2018-02-23T09:50:41.447Z,61.30
2018-02-23T09:53:16.884Z,61.70
2018-02-23T09:55:52.222Z,61.50
2018-02-23T09:58:26.040Z,61.50
2018-02-23T10:01:00.215Z,62.20
2018-02-23T10:03:34.768Z,61.90
2018-02-23T10:06:08.674Z,62.80
2018-02-23T10:08:43.185Z,61.80
2018-02-23T10:11:17.846Z,62.00
2018-02-23T10:13:51.944Z,61.90
2018-02-23T10:16:26.040Z,61.60
2018-02-23T10:19:01.444Z,62.10
2018-02-23T10:21:36.012Z,62.00
2018-02-23T10:24:10.225Z,62.10
2018-02-23T10:26:44.867Z,62.50
2018-02-23T10:29:19.261Z,62.10
2018-02-23T10:31:53.092Z,61.20
2018-02-23T10:34:27.792Z,60.30
2018-02-23T10:37:03.035Z,60.10
2018-02-23T10:39:36.659Z,60.00
2018-02-23T10:42:12.268Z,59.20
2018-02-23T10:44:45.974Z,59.20
2018-02-23T10:47:19.986Z,59.40
2018-02-23T10:49:53.795Z,60.10
2018-02-23T10:52:27.803Z,60.30
2018-02-23T10:55:01.526Z,59.40
2018-02-23T10:57:35.631Z,59.00
2018-02-23T11:00:10.443Z,58.90
2018-02-23T11:02:45.079Z,58.70
2018-02-23T11:05:20.232Z,60.00
2018-02-23T11:07:54.978Z,60.00
2018-02-23T11:10:29.360Z,59.70
2018-02-23T11:13:04.218Z,59.10
2018-02-23T11:15:39.010Z,59.20
2018-02-23T11:18:16.804Z,59.30
2018-02-23T11:20:50.518Z,59.30
2018-02-23T11:23:25.349Z,57.80
2018-02-23T11:26:00.494Z,58.20
2018-02-23T11:28:35.516Z,57.90
2018-02-23T11:31:10.466Z,58.30
2018-02-23T11:33:44.480Z,58.30
2018-02-23T11:36:18.982Z,57.90
2018-02-23T11:38:54.985Z,57.90
2018-02-23T11:41:29.242Z,58.90
2018-02-23T11:44:04.487Z,59.30
2018-02-23T11:46:39.367Z,59.20
2018-02-23T11:49:13.925Z,58.70
2018-02-23T11:51:48.615Z,58.60
2018-02-23T11:54:22.786Z,58.50
2018-02-23T11:56:56.763Z,59.20
2018-02-23T11:59:34.371Z,59.30
2018-02-23T12:02:09.212Z,59.40
2018-02-23T12:04:44.370Z,58.60
2018-02-23T12:07:18.040Z,58.60
2018-02-23T12:09:53.081Z,58.30
2018-02-23T12:12:27.723Z,57.70
2018-02-23T12:15:03.355Z,57.90
2018-02-23T12:17:37.254Z,57.90
2018-02-23T12:20:12.924Z,57.40
2018-02-23T12:22:46.934Z,56.70
2018-02-23T12:25:21.337Z,57.10
2018-02-23T12:27:55.756Z,57.10
2018-02-23T12:30:29.596Z,57.00
2018-02-23T12:33:04.383Z,55.60
2018-02-23T12:35:39.212Z,56.00
2018-02-23T12:38:13.936Z,56.00
2018-02-23T12:40:48.590Z,54.90
2018-02-23T12:43:26.083Z,56.00
2018-02-23T12:46:02.238Z,56.30
2018-02-23T12:48:36.330Z,56.30
2018-02-23T12:51:10.739Z,55.00
2018-02-23T12:53:46.822Z,54.50
2018-02-23T12:56:21.413Z,54.50
2018-02-23T12:58:56.160Z,53.60
2018-02-23T13:01:33.035Z,54.20
2018-02-23T13:04:07.763Z,53.80
2018-02-23T13:06:43.906Z,53.90
2018-02-23T13:09:18.955Z,54.40
2018-02-23T13:11:53.990Z,54.40
2018-02-23T13:14:35.071Z,54.50
2018-02-23T13:17:10.204Z,54.90
2018-02-23T13:19:44.749Z,55.20
2018-02-23T13:22:18.698Z,54.70
2018-02-23T13:24:53.772Z,54.80
2018-02-23T13:27:28.379Z,55.70
2018-02-23T13:30:03.514Z,56.00
2018-02-23T13:32:37.607Z,56.00
2018-02-23T13:35:13.987Z,55.20
2018-02-23T13:37:48.839Z,54.40
2018-02-23T13:40:23.648Z,54.40
2018-02-23T13:42:57.355Z,54.30
2018-02-23T13:45:33.518Z,55.60
2018-02-23T13:48:08.453Z,54.60
2018-02-23T13:50:42.568Z,54.70
2018-02-23T13:53:18.772Z,54.00
2018-02-23T13:55:53.160Z,54.00
2018-02-23T13:58:26.935Z,55.10
2018-02-23T14:01:02.727Z,55.90
2018-02-23T14:03:38.749Z,55.90
2018-02-23T14:06:13.574Z,55.60
2018-02-23T14:08:47.999Z,56.40
2018-02-23T14:11:22.835Z,56.60
2018-02-23T14:13:57.755Z,57.60
2018-02-23T14:16:32.669Z,57.50
2018-02-23T14:19:07.099Z,57.00
2018-02-23T14:21:41.426Z,57.00
2018-02-23T14:24:15.620Z,57.20
2018-02-23T14:26:49.616Z,57.60
2018-02-23T14:29:23.646Z,57.20
2018-02-23T14:31:58.163Z,56.60
2018-02-23T14:34:33.097Z,57.70
2018-02-23T14:37:07.819Z,57.60
2018-02-23T14:39:42.650Z,58.60
2018-02-23T14:42:16.556Z,58.60
2018-02-23T14:44:51.884Z,58.50
2018-02-23T14:47:25.609Z,58.40
2018-02-23T14:50:11.512Z,57.90
2018-02-23T14:52:45.831Z,58.30
2018-02-23T14:55:19.933Z,58.40
2018-02-23T14:57:55.247Z,57.70
2018-02-23T15:00:28.961Z,57.80
2018-02-23T15:03:02.764Z,58.10
2018-02-23T15:05:36.463Z,58.70
2018-02-23T15:08:12.020Z,58.70
2018-02-23T15:10:46.632Z,59.30
2018-02-23T15:13:20.966Z,59.40
2018-02-23T15:15:55.383Z,58.60
2018-02-23T15:18:29.272Z,58.60
2018-02-23T15:21:04.020Z,59.40
2018-02-23T15:23:38.792Z,58.60
2018-02-23T15:26:13.162Z,58.60
2018-02-23T15:28:47.992Z,58.50
2018-02-23T15:31:34.700Z,58.70
2018-02-23T15:34:09.264Z,58.70
2018-02-23T15:36:43.652Z,58.70
2018-02-23T15:39:17.333Z,59.20
2018-02-23T15:41:52.874Z,59.50
2018-02-23T15:44:27.623Z,58.80
2018-02-23T15:47:02.575Z,58.80
2018-02-23T15:49:42.172Z,58.80
2018-02-23T15:52:17.329Z,59.20
2018-02-23T15:54:52.754Z,59.70
2018-02-23T15:57:28.528Z,59.70
2018-02-23T16:00:03.252Z,59.60
2018-02-23T16:02:37.752Z,59.70
2018-02-23T16:05:13.727Z,59.70
2018-02-23T16:07:47.610Z,59.70
2018-02-23T16:10:22.498Z,60.40
2018-02-23T16:12:56.912Z,60.40
2018-02-23T16:15:31.196Z,60.10
2018-02-23T16:18:05.722Z,60.00
2018-02-23T16:20:43.299Z,60.20
2018-02-23T16:23:17.904Z,60.90
2018-02-23T16:25:53.490Z,59.60
2018-02-23T16:28:29.511Z,59.70
2018-02-23T16:31:04.341Z,59.20
2018-02-23T16:33:39.192Z,60.10
2018-02-23T16:36:15.154Z,60.10
2018-02-23T16:38:50.387Z,60.30
2018-02-23T16:41:24.487Z,60.30
2018-02-23T16:43:59.223Z,61.10
2018-02-23T16:46:34.040Z,60.30
2018-02-23T16:49:08.757Z,60.40
2018-02-23T16:51:42.965Z,60.40
2018-02-23T16:54:17.319Z,61.60
2018-02-23T16:56:51.202Z,61.60
2018-02-23T16:59:25.927Z,60.90
2018-02-23T17:02:00.066Z,60.90
2018-02-23T17:04:34.558Z,60.90
2018-02-23T17:07:09.200Z,62.50
2018-02-23T17:09:43.501Z,62.50
2018-02-23T17:12:17.200Z,62.00
2018-02-23T17:14:53.072Z,61.70
2018-02-23T17:17:27.671Z,61.30
2018-02-23T17:20:02.502Z,61.40
2018-02-23T17:22:36.940Z,62.00
2018-02-23T17:25:11.843Z,62.30
2018-02-23T17:27:46.272Z,62.00
2018-02-23T17:30:19.999Z,62.00
2018-02-23T17:32:54.720Z,62.20
2018-02-23T17:35:28.710Z,62.00
2018-02-23T17:38:03.125Z,61.90
2018-02-23T17:40:37.661Z,60.80
2018-02-23T17:43:12.790Z,62.10
2018-02-23T17:45:47.410Z,61.70
2018-02-23T17:48:22.341Z,61.70
2018-02-23T17:50:56.674Z,61.50
2018-02-23T17:53:31.413Z,62.40
2018-02-23T17:56:05.528Z,62.40
2018-02-23T17:58:39.208Z,62.90
2018-02-23T18:01:14.985Z,61.70
2018-02-23T18:03:49.670Z,61.70
2018-02-23T18:06:23.488Z,62.00
2018-02-23T18:08:57.189Z,61.70
2018-02-23T18:11:31.511Z,62.00
2018-02-23T18:14:05.426Z,62.10
2018-02-23T18:16:40.257Z,61.70
2018-02-23T18:19:14.859Z,61.50
2018-02-23T18:21:48.663Z,61.50
2018-02-23T18:24:24.540Z,60.90
2018-02-23T18:26:58.698Z,61.00
2018-02-23T18:29:34.095Z,60.90
2018-02-23T18:45:01.611Z,60.30
2018-02-23T18:47:35.438Z,59.80
2018-02-23T18:50:09.532Z,59.30
2018-02-23T18:52:43.846Z,59.30
2018-02-23T18:55:18.460Z,59.40
2018-02-23T18:57:52.587Z,59.30
2018-02-23T19:00:26.835Z,59.10
2018-02-23T19:03:01.312Z,59.20
2018-02-23T19:05:35.935Z,59.30
2018-02-23T19:08:09.951Z,59.30
2018-02-23T19:10:44.580Z,59.20
2018-02-23T19:13:19.196Z,59.50
2018-02-23T19:15:53.102Z,59.50
2018-02-23T19:18:26.923Z,59.80
2018-02-23T19:21:01.316Z,59.90
2018-02-23T19:23:35.132Z,59.30
2018-02-23T19:26:09.235Z,59.70
2018-02-23T19:28:44.187Z,59.60
2018-02-23T19:31:18.829Z,60.20
2018-02-23T19:33:54.282Z,60.10
2018-02-23T19:36:28.947Z,60.20
2018-02-23T19:39:04.333Z,60.30
2018-02-23T19:41:38.844Z,60.10
2018-02-23T19:44:13.659Z,60.60
2018-02-23T19:46:47.260Z,60.70
2018-02-23T19:49:21.981Z,60.90
2018-02-23T19:51:56.816Z,60.60
2018-02-23T19:54:32.347Z,60.70
2018-02-23T19:57:05.973Z,60.80
2018-02-23T19:59:41.095Z,60.40
2018-02-23T20:02:15.316Z,60.30
2018-02-23T20:04:49.008Z,60.30
2018-02-23T20:07:23.628Z,60.60
2018-02-23T20:10:01.589Z,61.30
2018-02-23T20:12:36.671Z,61.90
2018-02-23T20:15:13.720Z,61.30
2018-02-23T20:17:47.584Z,61.20
2018-02-23T20:20:22.008Z,61.10
2018-02-23T20:22:57.721Z,61.20
2018-02-23T20:25:33.028Z,61.20
2018-02-23T20:28:07.179Z,61.20
2018-02-23T20:30:43.304Z,61.40
2018-02-23T20:33:18.077Z,61.10
2018-02-23T20:35:53.989Z,62.00
2018-02-23T20:38:27.933Z,62.00
2018-02-23T20:41:03.786Z,62.20
2018-02-23T20:43:38.296Z,61.30
2018-02-23T20:46:15.132Z,61.60
2018-02-23T20:48:49.014Z,61.70
2018-02-23T20:51:24.274Z,61.50
2018-02-23T20:53:58.444Z,61.60
2018-02-23T20:56:33.182Z,61.60
2018-02-23T20:59:07.995Z,62.20
2018-02-23T21:01:42.099Z,62.40
2018-02-23T21:04:16.727Z,62.60
2018-02-23T21:06:51.986Z,61.90
2018-02-23T21:09:25.878Z,61.90
2018-02-23T21:12:02.532Z,62.90
2018-02-23T21:14:36.979Z,62.90
2018-02-23T21:17:12.490Z,62.60
2018-02-23T21:19:46.013Z,62.60
2018-02-23T21:22:20.544Z,62.80
2018-02-23T21:24:55.351Z,63.70
2018-02-23T21:27:29.240Z,63.70
2018-02-23T21:30:02.960Z,62.50
2018-02-23T21:32:36.762Z,62.80
2018-02-23T21:35:11.692Z,63.00
2018-02-23T21:37:46.396Z,62.90
2018-02-23T21:40:21.161Z,63.00
2018-02-23T21:42:55.073Z,62.90
2018-02-23T21:45:29.258Z,63.00
2018-02-23T21:48:03.284Z,62.70
2018-02-23T21:50:37.100Z,63.10
2018-02-23T21:53:12.220Z,61.90
2018-02-23T21:55:46.132Z,62.00
2018-02-23T21:58:21.776Z,63.00
2018-02-23T22:00:55.568Z,63.00
2018-02-23T22:03:30.012Z,63.10
2018-02-23T22:06:04.623Z,64.00
2018-02-23T22:08:38.625Z,63.90
2018-02-23T22:11:13.255Z,63.40
2018-02-23T22:13:48.235Z,63.30
2018-02-23T22:16:22.701Z,63.60
2018-02-23T22:18:57.327Z,62.30
2018-02-23T22:21:31.972Z,62.30
2018-02-23T22:24:05.958Z,62.70
2018-02-23T22:26:40.791Z,63.80
2018-02-23T22:29:14.595Z,63.80
2018-02-23T22:31:48.605Z,63.30
2018-02-23T22:34:22.818Z,63.70
2018-02-23T22:36:56.527Z,63.80
2018-02-23T22:39:30.535Z,63.90
2018-02-23T22:42:04.540Z,63.80
2018-02-23T22:44:39.163Z,64.30
2018-02-23T22:47:14.316Z,63.50
2018-02-23T22:49:49.024Z,63.20
2018-02-23T22:52:23.136Z,63.30
2018-02-23T22:54:56.945Z,62.80
2018-02-23T22:57:31.175Z,63.70
2018-02-23T23:00:05.668Z,63.70
2018-02-23T23:02:41.131Z,64.10
2018-02-23T23:05:15.675Z,63.60
2018-02-23T23:07:50.388Z,63.60
2018-02-23T23:10:24.995Z,64.00
2018-02-23T23:26:06.752Z,64.10
2018-02-23T23:28:40.595Z,63.60
2018-02-23T23:31:14.681Z,63.20
2018-02-23T23:33:48.388Z,63.60
2018-02-23T23:36:23.723Z,63.60
2018-02-23T23:38:57.314Z,63.90
2018-02-23T23:41:32.679Z,64.40
2018-02-23T23:44:06.664Z,64.40
2018-02-23T23:46:42.423Z,64.70
2018-02-23T23:49:16.964Z,64.90
2018-02-23T23:51:51.562Z,64.90
2018-02-23T23:54:25.634Z,64.60
2018-02-23T23:56:59.280Z,64.20
2018-02-23T23:59:34.422Z,64.80
